sensor_id;sensor_type;location;lat;lon;timestamp;P1;durP1;ratioP1;P2;durP2;ratioP2
45893;SDS011;31603;51.148;16.932;2023-04-05T00:01:58;26.92;;;12.30;;
45893;SDS011;31603;51.148;16.932;2023-04-05T00:04:41;32.30;;;12.80;;
45893;SDS011;31603;51.148;16.932;2023-04-05T00:08:58;32.00;;;12.15;;
45893;SDS011;31603;51.148;16.932;2023-04-05T00:10:51;27.42;;;11.93;;
45893;SDS011;31603;51.148;16.932;2023-04-05T00:27:57;29.02;;;12.40;;
45893;SDS011;31603;51.148;16.932;2023-04-05T00:30:40;26.52;;;12.13;;
45893;SDS011;31603;51.148;16.932;2023-04-05T00:33:32;34.70;;;13.35;;
45893;SDS011;31603;51.148;16.932;2023-04-05T00:36:13;28.63;;;12.77;;
45893;SDS011;31603;51.148;16.932;2023-04-05T00:39:33;30.92;;;12.32;;
45893;SDS011;31603;51.148;16.932;2023-04-05T00:54:16;28.38;;;12.95;;
45893;SDS011;31603;51.148;16.932;2023-04-05T00:57:02;26.60;;;11.77;;
45893;SDS011;31603;51.148;16.932;2023-04-05T00:59:31;29.67;;;11.75;;
45893;SDS011;31603;51.148;16.932;2023-04-05T01:02:01;27.88;;;12.13;;
45893;SDS011;31603;51.148;16.932;2023-04-05T01:04:51;28.63;;;12.07;;
45893;SDS011;31603;51.148;16.932;2023-04-05T01:07:41;30.13;;;13.90;;
45893;SDS011;31603;51.148;16.932;2023-04-05T01:10:18;26.00;;;10.65;;
45893;SDS011;31603;51.148;16.932;2023-04-05T01:13:00;27.95;;;10.15;;
45893;SDS011;31603;51.148;16.932;2023-04-05T01:15:38;21.23;;;9.50;;
45893;SDS011;31603;51.148;16.932;2023-04-05T01:18:13;24.25;;;10.15;;
45893;SDS011;31603;51.148;16.932;2023-04-05T01:20:57;23.98;;;11.75;;
45893;SDS011;31603;51.148;16.932;2023-04-05T01:24:03;22.27;;;10.70;;
45893;SDS011;31603;51.148;16.932;2023-04-05T01:27:01;23.10;;;9.57;;
45893;SDS011;31603;51.148;16.932;2023-04-05T01:36:00;23.50;;;10.82;;
45893;SDS011;31603;51.148;16.932;2023-04-05T01:38:48;21.45;;;10.77;;
45893;SDS011;31603;51.148;16.932;2023-04-05T01:41:32;33.40;;;13.07;;
45893;SDS011;31603;51.148;16.932;2023-04-05T01:43:59;46.03;;;21.67;;
45893;SDS011;31603;51.148;16.932;2023-04-05T01:46:56;48.67;;;23.23;;
45893;SDS011;31603;51.148;16.932;2023-04-05T01:49:38;34.08;;;15.45;;
45893;SDS011;31603;51.148;16.932;2023-04-05T01:53:18;41.38;;;16.45;;
45893;SDS011;31603;51.148;16.932;2023-04-05T01:56:10;30.52;;;13.48;;
45893;SDS011;31603;51.148;16.932;2023-04-05T01:59:57;29.63;;;11.80;;
45893;SDS011;31603;51.148;16.932;2023-04-05T02:03:38;25.70;;;11.15;;
45893;SDS011;31603;51.148;16.932;2023-04-05T02:07:15;25.75;;;10.77;;
45893;SDS011;31603;51.148;16.932;2023-04-05T02:10:54;26.98;;;11.60;;
45893;SDS011;31603;51.148;16.932;2023-04-05T02:14:34;25.83;;;11.07;;
45893;SDS011;31603;51.148;16.932;2023-04-05T02:18:01;25.38;;;10.35;;
45893;SDS011;31603;51.148;16.932;2023-04-05T02:21:43;23.88;;;11.00;;
45893;SDS011;31603;51.148;16.932;2023-04-05T02:25:38;22.55;;;9.77;;
45893;SDS011;31603;51.148;16.932;2023-04-05T02:29:34;25.98;;;10.90;;
45893;SDS011;31603;51.148;16.932;2023-04-05T02:33:03;25.67;;;10.60;;
45893;SDS011;31603;51.148;16.932;2023-04-05T02:36:43;22.50;;;10.38;;
45893;SDS011;31603;51.148;16.932;2023-04-05T02:40:29;22.65;;;10.32;;
45893;SDS011;31603;51.148;16.932;2023-04-05T02:44:00;22.30;;;10.57;;
45893;SDS011;31603;51.148;16.932;2023-04-05T02:47:40;21.00;;;9.38;;
45893;SDS011;31603;51.148;16.932;2023-04-05T02:51:43;25.10;;;10.98;;
45893;SDS011;31603;51.148;16.932;2023-04-05T02:55:17;23.73;;;9.93;;
45893;SDS011;31603;51.148;16.932;2023-04-05T03:51:31;30.00;;;12.47;;
45893;SDS011;31603;51.148;16.932;2023-04-05T03:55:00;32.47;;;13.30;;
45893;SDS011;31603;51.148;16.932;2023-04-05T03:58:41;30.52;;;14.65;;
45893;SDS011;31603;51.148;16.932;2023-04-05T04:02:13;26.80;;;11.93;;
45893;SDS011;31603;51.148;16.932;2023-04-05T04:06:29;26.10;;;11.20;;
45893;SDS011;31603;51.148;16.932;2023-04-05T04:26:36;25.55;;;12.27;;
45893;SDS011;31603;51.148;16.932;2023-04-05T04:30:18;25.33;;;11.73;;
45893;SDS011;31603;51.148;16.932;2023-04-05T04:33:57;31.48;;;12.30;;
45893;SDS011;31603;51.148;16.932;2023-04-05T04:37:44;34.53;;;15.10;;
45893;SDS011;31603;51.148;16.932;2023-04-05T04:41:33;25.60;;;11.93;;
45893;SDS011;31603;51.148;16.932;2023-04-05T04:45:03;27.45;;;11.30;;
45893;SDS011;31603;51.148;16.932;2023-04-05T04:48:42;26.80;;;12.15;;
45893;SDS011;31603;51.148;16.932;2023-04-05T04:52:14;21.17;;;11.55;;
45893;SDS011;31603;51.148;16.932;2023-04-05T04:55:53;22.88;;;10.50;;
45893;SDS011;31603;51.148;16.932;2023-04-05T05:08:01;22.77;;;10.82;;
45893;SDS011;31603;51.148;16.932;2023-04-05T05:11:42;25.52;;;10.88;;
45893;SDS011;31603;51.148;16.932;2023-04-05T05:15:17;23.42;;;10.35;;
45893;SDS011;31603;51.148;16.932;2023-04-05T05:22:42;24.63;;;11.40;;
45893;SDS011;31603;51.148;16.932;2023-04-05T05:30:12;26.75;;;10.73;;
45893;SDS011;31603;51.148;16.932;2023-04-05T05:33:59;21.65;;;10.32;;
45893;SDS011;31603;51.148;16.932;2023-04-05T05:37:59;20.98;;;11.05;;
45893;SDS011;31603;51.148;16.932;2023-04-05T06:22:38;25.73;;;10.05;;
45893;SDS011;31603;51.148;16.932;2023-04-05T06:25:58;26.75;;;10.63;;
45893;SDS011;31603;51.148;16.932;2023-04-05T06:30:01;26.63;;;11.73;;
45893;SDS011;31603;51.148;16.932;2023-04-05T06:33:43;26.98;;;10.93;;
45893;SDS011;31603;51.148;16.932;2023-04-05T07:14:18;19.65;;;9.32;;
45893;SDS011;31603;51.148;16.932;2023-04-05T07:18:31;19.73;;;9.13;;
45893;SDS011;31603;51.148;16.932;2023-04-05T07:21:58;19.25;;;9.68;;
45893;SDS011;31603;51.148;16.932;2023-04-05T07:25:44;20.52;;;9.85;;
45893;SDS011;31603;51.148;16.932;2023-04-05T07:29:31;22.27;;;11.65;;
45893;SDS011;31603;51.148;16.932;2023-04-05T07:36:36;20.45;;;9.18;;
45893;SDS011;31603;51.148;16.932;2023-04-05T07:40:04;23.88;;;11.30;;
45893;SDS011;31603;51.148;16.932;2023-04-05T08:04:01;23.35;;;11.35;;
45893;SDS011;31603;51.148;16.932;2023-04-05T08:07:41;21.38;;;12.02;;
45893;SDS011;31603;51.148;16.932;2023-04-05T08:11:36;23.38;;;12.15;;
45893;SDS011;31603;51.148;16.932;2023-04-05T08:14:56;21.60;;;10.48;;
45893;SDS011;31603;51.148;16.932;2023-04-05T08:18:38;17.75;;;8.40;;
45893;SDS011;31603;51.148;16.932;2023-04-05T08:22:21;19.25;;;8.45;;
45893;SDS011;31603;51.148;16.932;2023-04-05T08:26:33;18.88;;;8.88;;
45893;SDS011;31603;51.148;16.932;2023-04-05T08:30:00;19.05;;;7.97;;
45893;SDS011;31603;51.148;16.932;2023-04-05T08:50:20;14.45;;;5.35;;
45893;SDS011;31603;51.148;16.932;2023-04-05T08:54:35;12.27;;;5.82;;
45893;SDS011;31603;51.148;16.932;2023-04-05T08:58:37;9.05;;;3.97;;
45893;SDS011;31603;51.148;16.932;2023-04-05T09:06:35;11.68;;;5.45;;
45893;SDS011;31603;51.148;16.932;2023-04-05T09:10:40;14.70;;;6.65;;
45893;SDS011;31603;51.148;16.932;2023-04-05T09:13:53;13.40;;;5.32;;
45893;SDS011;31603;51.148;16.932;2023-04-05T09:17:37;15.10;;;5.72;;
45893;SDS011;31603;51.148;16.932;2023-04-05T10:05:39;11.13;;;4.57;;
45893;SDS011;31603;51.148;16.932;2023-04-05T10:09:31;15.65;;;8.10;;
45893;SDS011;31603;51.148;16.932;2023-04-05T10:13:44;10.45;;;5.28;;
45893;SDS011;31603;51.148;16.932;2023-04-05T10:17:01;10.65;;;5.07;;
45893;SDS011;31603;51.148;16.932;2023-04-05T10:29:43;9.57;;;4.80;;
45893;SDS011;31603;51.148;16.932;2023-04-05T10:33:10;11.25;;;5.10;;
45893;SDS011;31603;51.148;16.932;2023-04-05T10:37:34;12.70;;;5.25;;
45893;SDS011;31603;51.148;16.932;2023-04-05T10:40:56;12.07;;;5.93;;
45893;SDS011;31603;51.148;16.932;2023-04-05T11:25:52;9.82;;;4.90;;
45893;SDS011;31603;51.148;16.932;2023-04-05T11:29:44;9.05;;;4.20;;
45893;SDS011;31603;51.148;16.932;2023-04-05T11:33:35;6.82;;;3.08;;
45893;SDS011;31603;51.148;16.932;2023-04-05T11:37:03;5.03;;;2.22;;
45893;SDS011;31603;51.148;16.932;2023-04-05T11:45:12;8.70;;;3.50;;
45893;SDS011;31603;51.148;16.932;2023-04-05T11:48:43;6.40;;;2.80;;
45893;SDS011;31603;51.148;16.932;2023-04-05T11:52:34;8.68;;;3.03;;
45893;SDS011;31603;51.148;16.932;2023-04-05T11:56:19;4.82;;;2.70;;
45893;SDS011;31603;51.148;16.932;2023-04-05T12:28:35;9.07;;;3.50;;
45893;SDS011;31603;51.148;16.932;2023-04-05T12:32:29;7.25;;;3.45;;
45893;SDS011;31603;51.148;16.932;2023-04-05T12:36:20;5.43;;;3.60;;
45893;SDS011;31603;51.148;16.932;2023-04-05T12:44:37;8.82;;;4.40;;
45893;SDS011;31603;51.148;16.932;2023-04-05T12:52:03;5.80;;;3.33;;
45893;SDS011;31603;51.148;16.932;2023-04-05T12:56:19;14.18;;;5.63;;
45893;SDS011;31603;51.148;16.932;2023-04-05T13:00:39;5.95;;;3.20;;
45893;SDS011;31603;51.148;16.932;2023-04-05T13:04:20;9.00;;;4.78;;
45893;SDS011;31603;51.148;16.932;2023-04-05T13:08:17;11.82;;;6.03;;
45893;SDS011;31603;51.148;16.932;2023-04-05T13:13:03;12.90;;;5.93;;
45893;SDS011;31603;51.148;16.932;2023-04-05T13:37:39;18.33;;;9.13;;
45893;SDS011;31603;51.148;16.932;2023-04-05T13:44:58;15.88;;;7.28;;
45893;SDS011;31603;51.148;16.932;2023-04-05T13:48:37;16.23;;;9.32;;
45893;SDS011;31603;51.148;16.932;2023-04-05T13:52:02;19.30;;;9.30;;
45893;SDS011;31603;51.148;16.932;2023-04-05T15:07:01;6.97;;;2.60;;
45893;SDS011;31603;51.148;16.932;2023-04-05T15:10:51;4.15;;;2.80;;
45893;SDS011;31603;51.148;16.932;2023-04-05T15:18:29;5.22;;;2.60;;
45893;SDS011;31603;51.148;16.932;2023-04-05T15:55:11;13.13;;;5.95;;
45893;SDS011;31603;51.148;16.932;2023-04-05T15:58:51;7.45;;;4.07;;
45893;SDS011;31603;51.148;16.932;2023-04-05T16:02:28;8.35;;;4.35;;
45893;SDS011;31603;51.148;16.932;2023-04-05T16:21:43;7.60;;;3.60;;
45893;SDS011;31603;51.148;16.932;2023-04-05T16:25:33;5.68;;;3.33;;
45893;SDS011;31603;51.148;16.932;2023-04-05T16:29:20;7.80;;;3.60;;
45893;SDS011;31603;51.148;16.932;2023-04-05T16:34:59;7.63;;;4.15;;
45893;SDS011;31603;51.148;16.932;2023-04-05T17:10:51;9.05;;;3.97;;
45893;SDS011;31603;51.148;16.932;2023-04-05T17:13:23;8.00;;;3.35;;
45893;SDS011;31603;51.148;16.932;2023-04-05T17:15:54;7.75;;;3.75;;
45893;SDS011;31603;51.148;16.932;2023-04-05T17:18:28;10.55;;;4.03;;
45893;SDS011;31603;51.148;16.932;2023-04-05T17:20:54;11.15;;;5.10;;
45893;SDS011;31603;51.148;16.932;2023-04-05T17:23:27;12.27;;;5.45;;
45893;SDS011;31603;51.148;16.932;2023-04-05T17:28:51;16.48;;;6.50;;
45893;SDS011;31603;51.148;16.932;2023-04-05T17:31:31;20.15;;;8.02;;
45893;SDS011;31603;51.148;16.932;2023-04-05T17:34:00;21.23;;;9.02;;
45893;SDS011;31603;51.148;16.932;2023-04-05T17:36:32;26.27;;;11.57;;
45893;SDS011;31603;51.148;16.932;2023-04-05T17:39:01;31.42;;;11.35;;
45893;SDS011;31603;51.148;16.932;2023-04-05T17:41:41;38.97;;;16.50;;
45893;SDS011;31603;51.148;16.932;2023-04-05T17:44:11;40.85;;;17.73;;
45893;SDS011;31603;51.148;16.932;2023-04-05T17:46:37;49.05;;;20.15;;
45893;SDS011;31603;51.148;16.932;2023-04-05T17:49:03;29.60;;;15.15;;
45893;SDS011;31603;51.148;16.932;2023-04-05T17:51:30;33.50;;;14.80;;
45893;SDS011;31603;51.148;16.932;2023-04-05T17:53:56;36.97;;;13.63;;
45893;SDS011;31603;51.148;16.932;2023-04-05T17:56:29;41.50;;;15.10;;
45893;SDS011;31603;51.148;16.932;2023-04-05T17:59:59;30.05;;;10.90;;
45893;SDS011;31603;51.148;16.932;2023-04-05T18:07:47;54.88;;;21.27;;
45893;SDS011;31603;51.148;16.932;2023-04-05T18:10:16;32.25;;;15.38;;
45893;SDS011;31603;51.148;16.932;2023-04-05T18:12:44;33.15;;;15.10;;
45893;SDS011;31603;51.148;16.932;2023-04-05T18:15:10;36.67;;;15.02;;
45893;SDS011;31603;51.148;16.932;2023-04-05T18:17:36;34.47;;;14.82;;
45893;SDS011;31603;51.148;16.932;2023-04-05T18:20:04;119.18;;;54.55;;
45893;SDS011;31603;51.148;16.932;2023-04-05T18:22:34;37.10;;;15.90;;
45893;SDS011;31603;51.148;16.932;2023-04-05T18:25:03;28.65;;;12.65;;
45893;SDS011;31603;51.148;16.932;2023-04-05T18:27:30;51.65;;;21.65;;
45893;SDS011;31603;51.148;16.932;2023-04-05T18:29:57;39.50;;;16.77;;
45893;SDS011;31603;51.148;16.932;2023-04-05T18:32:37;45.53;;;19.45;;
45893;SDS011;31603;51.148;16.932;2023-04-05T18:35:07;52.40;;;22.48;;
45893;SDS011;31603;51.148;16.932;2023-04-05T18:37:48;57.25;;;21.88;;
45893;SDS011;31603;51.148;16.932;2023-04-05T18:40:30;70.40;;;27.55;;
45893;SDS011;31603;51.148;16.932;2023-04-05T18:42:57;82.18;;;30.88;;
45893;SDS011;31603;51.148;16.932;2023-04-05T18:45:37;98.60;;;36.63;;
45893;SDS011;31603;51.148;16.932;2023-04-05T18:48:03;91.07;;;33.83;;
45893;SDS011;31603;51.148;16.932;2023-04-05T18:50:30;118.35;;;42.53;;
45893;SDS011;31603;51.148;16.932;2023-04-05T18:52:58;72.68;;;29.00;;
45893;SDS011;31603;51.148;16.932;2023-04-05T18:55:24;65.32;;;24.83;;
45893;SDS011;31603;51.148;16.932;2023-04-05T18:57:53;40.08;;;17.10;;
45893;SDS011;31603;51.148;16.932;2023-04-05T19:00:20;43.17;;;17.98;;
45893;SDS011;31603;51.148;16.932;2023-04-05T19:02:46;38.88;;;17.13;;
45893;SDS011;31603;51.148;16.932;2023-04-05T19:05:14;40.95;;;18.58;;
45893;SDS011;31603;51.148;16.932;2023-04-05T19:07:40;50.00;;;21.15;;
45893;SDS011;31603;51.148;16.932;2023-04-05T19:10:07;50.67;;;21.83;;
45893;SDS011;31603;51.148;16.932;2023-04-05T19:12:34;37.58;;;18.30;;
45893;SDS011;31603;51.148;16.932;2023-04-05T19:15:01;34.13;;;16.90;;
45893;SDS011;31603;51.148;16.932;2023-04-05T19:17:30;31.30;;;14.85;;
45893;SDS011;31603;51.148;16.932;2023-04-05T19:19:56;36.45;;;17.25;;
45893;SDS011;31603;51.148;16.932;2023-04-05T19:22:22;39.70;;;17.63;;
45893;SDS011;31603;51.148;16.932;2023-04-05T19:24:48;34.95;;;16.25;;
45893;SDS011;31603;51.148;16.932;2023-04-05T19:27:15;45.17;;;20.50;;
45893;SDS011;31603;51.148;16.932;2023-04-05T19:29:41;57.95;;;27.75;;
45893;SDS011;31603;51.148;16.932;2023-04-05T19:32:09;48.03;;;22.95;;
45893;SDS011;31603;51.148;16.932;2023-04-05T19:34:35;42.40;;;20.80;;
45893;SDS011;31603;51.148;16.932;2023-04-05T19:37:04;35.97;;;18.70;;
45893;SDS011;31603;51.148;16.932;2023-04-05T19:39:43;40.20;;;19.83;;
45893;SDS011;31603;51.148;16.932;2023-04-05T19:42:24;35.88;;;18.27;;
45893;SDS011;31603;51.148;16.932;2023-04-05T19:44:55;41.97;;;21.87;;
45893;SDS011;31603;51.148;16.932;2023-04-05T19:50:16;42.08;;;19.77;;
45893;SDS011;31603;51.148;16.932;2023-04-05T19:53:00;37.53;;;19.33;;
45893;SDS011;31603;51.148;16.932;2023-04-05T19:55:35;43.35;;;21.70;;
45893;SDS011;31603;51.148;16.932;2023-04-05T19:58:05;45.05;;;22.30;;
45893;SDS011;31603;51.148;16.932;2023-04-05T20:00:34;45.30;;;22.35;;
45893;SDS011;31603;51.148;16.932;2023-04-05T20:03:01;42.65;;;21.77;;
45893;SDS011;31603;51.148;16.932;2023-04-05T20:08:34;52.67;;;25.92;;
45893;SDS011;31603;51.148;16.932;2023-04-05T20:11:02;47.80;;;22.75;;
45893;SDS011;31603;51.148;16.932;2023-04-05T20:13:30;53.75;;;24.55;;
45893;SDS011;31603;51.148;16.932;2023-04-05T20:15:56;54.97;;;23.80;;
45893;SDS011;31603;51.148;16.932;2023-04-05T20:18:23;48.80;;;23.05;;
45893;SDS011;31603;51.148;16.932;2023-04-05T20:20:51;47.80;;;23.60;;
45893;SDS011;31603;51.148;16.932;2023-04-05T20:23:18;51.03;;;23.42;;
45893;SDS011;31603;51.148;16.932;2023-04-05T20:25:47;42.10;;;23.50;;
45893;SDS011;31603;51.148;16.932;2023-04-05T20:31:02;42.88;;;22.15;;
45893;SDS011;31603;51.148;16.932;2023-04-05T20:33:33;44.65;;;21.98;;
45893;SDS011;31603;51.148;16.932;2023-04-05T20:36:00;50.97;;;24.50;;
45893;SDS011;31603;51.148;16.932;2023-04-05T20:38:34;46.97;;;22.00;;
45893;SDS011;31603;51.148;16.932;2023-04-05T20:41:01;44.35;;;23.73;;
45893;SDS011;31603;51.148;16.932;2023-04-05T20:43:29;47.75;;;26.05;;
45893;SDS011;31603;51.148;16.932;2023-04-05T20:45:55;51.08;;;26.58;;
45893;SDS011;31603;51.148;16.932;2023-04-05T20:48:22;51.15;;;26.10;;
45893;SDS011;31603;51.148;16.932;2023-04-05T20:50:48;51.78;;;26.35;;
45893;SDS011;31603;51.148;16.932;2023-04-05T20:53:15;51.22;;;27.27;;
45893;SDS011;31603;51.148;16.932;2023-04-05T20:55:43;53.28;;;26.52;;
45893;SDS011;31603;51.148;16.932;2023-04-05T20:58:13;56.00;;;27.25;;
45893;SDS011;31603;51.148;16.932;2023-04-05T21:00:40;61.50;;;28.90;;
45893;SDS011;31603;51.148;16.932;2023-04-05T21:03:06;57.75;;;28.63;;
45893;SDS011;31603;51.148;16.932;2023-04-05T21:05:33;55.28;;;27.20;;
45893;SDS011;31603;51.148;16.932;2023-04-05T21:07:59;65.18;;;31.63;;
45893;SDS011;31603;51.148;16.932;2023-04-05T21:10:27;55.65;;;28.45;;
45893;SDS011;31603;51.148;16.932;2023-04-05T21:12:53;54.05;;;27.75;;
45893;SDS011;31603;51.148;16.932;2023-04-05T21:15:21;59.72;;;29.23;;
45893;SDS011;31603;51.148;16.932;2023-04-05T21:17:55;57.50;;;26.50;;
45893;SDS011;31603;51.148;16.932;2023-04-05T21:20:21;79.93;;;32.15;;
45893;SDS011;31603;51.148;16.932;2023-04-05T21:22:47;85.70;;;39.20;;
45893;SDS011;31603;51.148;16.932;2023-04-05T21:25:14;109.72;;;52.17;;
45893;SDS011;31603;51.148;16.932;2023-04-05T21:27:41;121.55;;;52.72;;
45893;SDS011;31603;51.148;16.932;2023-04-05T21:30:07;112.28;;;49.05;;
45893;SDS011;31603;51.148;16.932;2023-04-05T21:32:36;92.82;;;41.83;;
45893;SDS011;31603;51.148;16.932;2023-04-05T21:35:03;84.32;;;38.50;;
45893;SDS011;31603;51.148;16.932;2023-04-05T21:37:29;121.70;;;52.28;;
45893;SDS011;31603;51.148;16.932;2023-04-05T21:39:56;124.13;;;51.35;;
45893;SDS011;31603;51.148;16.932;2023-04-05T21:42:23;122.82;;;55.17;;
45893;SDS011;31603;51.148;16.932;2023-04-05T21:44:59;106.00;;;48.72;;
45893;SDS011;31603;51.148;16.932;2023-04-05T21:47:29;133.75;;;55.67;;
45893;SDS011;31603;51.148;16.932;2023-04-05T21:49:59;115.03;;;50.00;;
45893;SDS011;31603;51.148;16.932;2023-04-05T21:52:26;112.32;;;46.97;;
45893;SDS011;31603;51.148;16.932;2023-04-05T21:54:52;103.38;;;47.10;;
45893;SDS011;31603;51.148;16.932;2023-04-05T21:57:24;115.40;;;48.42;;
45893;SDS011;31603;51.148;16.932;2023-04-05T21:59:53;105.00;;;45.90;;
45893;SDS011;31603;51.148;16.932;2023-04-05T22:02:20;100.10;;;47.38;;
45893;SDS011;31603;51.148;16.932;2023-04-05T22:04:52;97.13;;;44.45;;
45893;SDS011;31603;51.148;16.932;2023-04-05T22:07:34;94.72;;;44.20;;
45893;SDS011;31603;51.148;16.932;2023-04-05T22:10:01;93.63;;;44.00;;
45893;SDS011;31603;51.148;16.932;2023-04-05T22:12:28;80.70;;;38.58;;
45893;SDS011;31603;51.148;16.932;2023-04-05T22:14:54;78.32;;;39.35;;
45893;SDS011;31603;51.148;16.932;2023-04-05T22:17:21;75.78;;;35.25;;
45893;SDS011;31603;51.148;16.932;2023-04-05T22:19:47;83.38;;;41.70;;
45893;SDS011;31603;51.148;16.932;2023-04-05T22:22:15;77.97;;;37.47;;
45893;SDS011;31603;51.148;16.932;2023-04-05T22:24:44;76.03;;;34.95;;
45893;SDS011;31603;51.148;16.932;2023-04-05T22:27:11;75.95;;;36.60;;
45893;SDS011;31603;51.148;16.932;2023-04-05T22:29:51;131.02;;;59.67;;
45893;SDS011;31603;51.148;16.932;2023-04-05T22:32:18;95.88;;;44.78;;
45893;SDS011;31603;51.148;16.932;2023-04-05T22:34:45;84.90;;;41.20;;
45893;SDS011;31603;51.148;16.932;2023-04-05T22:37:11;82.68;;;39.15;;
45893;SDS011;31603;51.148;16.932;2023-04-05T22:39:37;98.03;;;47.45;;
45893;SDS011;31603;51.148;16.932;2023-04-05T22:42:05;92.68;;;44.03;;
45893;SDS011;31603;51.148;16.932;2023-04-05T22:44:31;103.22;;;48.38;;
45893;SDS011;31603;51.148;16.932;2023-04-05T22:46:58;97.25;;;49.55;;
45893;SDS011;31603;51.148;16.932;2023-04-05T22:49:24;97.13;;;47.55;;
45893;SDS011;31603;51.148;16.932;2023-04-05T22:51:53;92.05;;;46.85;;
45893;SDS011;31603;51.148;16.932;2023-04-05T22:54:19;107.80;;;55.83;;
45893;SDS011;31603;51.148;16.932;2023-04-05T22:56:46;98.45;;;48.13;;
45893;SDS011;31603;51.148;16.932;2023-04-05T22:59:18;86.07;;;41.40;;
45893;SDS011;31603;51.148;16.932;2023-04-05T23:01:58;81.55;;;39.67;;
45893;SDS011;31603;51.148;16.932;2023-04-05T23:04:26;96.32;;;45.58;;
45893;SDS011;31603;51.148;16.932;2023-04-05T23:06:52;112.28;;;54.15;;
45893;SDS011;31603;51.148;16.932;2023-04-05T23:09:19;83.47;;;42.28;;
45893;SDS011;31603;51.148;16.932;2023-04-05T23:11:51;80.03;;;39.83;;
45893;SDS011;31603;51.148;16.932;2023-04-05T23:17:01;65.72;;;35.00;;
45893;SDS011;31603;51.148;16.932;2023-04-05T23:19:31;72.78;;;33.50;;
45893;SDS011;31603;51.148;16.932;2023-04-05T23:21:58;71.28;;;33.05;;
45893;SDS011;31603;51.148;16.932;2023-04-05T23:24:26;76.72;;;37.17;;
45893;SDS011;31603;51.148;16.932;2023-04-05T23:26:54;87.70;;;42.78;;
45893;SDS011;31603;51.148;16.932;2023-04-05T23:29:34;78.40;;;36.05;;
45893;SDS011;31603;51.148;16.932;2023-04-05T23:32:02;72.18;;;34.15;;
45893;SDS011;31603;51.148;16.932;2023-04-05T23:34:39;72.85;;;34.45;;
45893;SDS011;31603;51.148;16.932;2023-04-05T23:37:11;74.93;;;36.10;;
45893;SDS011;31603;51.148;16.932;2023-04-05T23:39:44;73.80;;;35.80;;
45893;SDS011;31603;51.148;16.932;2023-04-05T23:42:11;85.28;;;40.75;;
45893;SDS011;31603;51.148;16.932;2023-04-05T23:44:53;75.53;;;37.78;;
45893;SDS011;31603;51.148;16.932;2023-04-05T23:47:30;76.50;;;35.03;;
45893;SDS011;31603;51.148;16.932;2023-04-05T23:49:56;83.55;;;38.50;;
45893;SDS011;31603;51.148;16.932;2023-04-05T23:52:28;81.68;;;36.50;;
45893;SDS011;31603;51.148;16.932;2023-04-05T23:54:55;84.80;;;39.90;;
45893;SDS011;31603;51.148;16.932;2023-04-05T23:57:21;88.78;;;42.30;;
45893;SDS011;31603;51.148;16.932;2023-04-05T23:59:49;86.55;;;38.78;;
